Time;durP1;ratioP1;P1;durP2;ratioP2;P2;SDS_P1;SDS_P2;PMS_P1;PMS_P2;Temp;Humidity;BMP_temperature;BMP_pressure;BME280_temperature;BME280_humidity;BME280_pressure;Samples;Min_cycle;Max_cycle;Signal;HPM_P1;HPM_P2
2021/01/29 00:01:16;;;;;;;1.30;0.45;;;9.90;99.90;;;;;;5010590;28;20037;-78
2021/01/29 00:03:42;;;;;;;1.42;0.50;;;9.90;99.90;;;;;;5006843;28;20128;-78
2021/01/29 00:06:09;;;;;;;1.52;0.70;;;9.80;99.90;;;;;;5008268;28;20042;-78
2021/01/29 00:08:34;;;;;;;1.90;0.95;;;9.90;99.90;;;;;;5011038;28;20076;-78
2021/01/29 00:11:01;;;;;;;3.95;1.20;;;9.80;99.90;;;;;;5000402;28;20453;-78
2021/01/29 00:13:27;;;;;;;1.65;0.70;;;9.80;99.90;;;;;;5011190;28;20034;-78
2021/01/29 00:15:52;;;;;;;1.65;0.50;;;9.90;99.90;;;;;;5014638;28;20604;-78
2021/01/29 00:18:19;;;;;;;3.90;0.80;;;9.80;99.90;;;;;;5012341;28;20037;-78
2021/01/29 00:20:45;;;;;;;2.15;1.00;;;9.70;99.90;;;;;;4990985;28;20577;-78
2021/01/29 00:23:11;;;;;;;1.08;0.85;;;9.60;99.90;;;;;;5008091;28;20041;-78
2021/01/29 00:25:40;;;;;;;4.97;0.68;;;9.50;99.90;;;;;;5011694;28;20037;-78
2021/01/29 00:28:07;;;;;;;1.85;1.08;;;9.40;99.90;;;;;;5005794;28;20042;-77
2021/01/29 00:30:34;;;;;;;1.02;0.50;;;9.30;99.90;;;;;;5007703;28;20037;-78
2021/01/29 00:33:00;;;;;;;1.95;0.63;;;9.10;99.90;;;;;;5007570;28;20038;-77
2021/01/29 00:35:31;;;;;;;1.52;0.60;;;9.10;99.90;;;;;;5010550;28;20098;-77
2021/01/29 00:37:57;;;;;;;2.60;0.52;;;9.00;99.90;;;;;;5008749;28;20600;-78
2021/01/29 00:40:23;;;;;;;1.95;0.50;;;9.00;99.90;;;;;;5014101;28;20128;-77
2021/01/29 00:42:49;;;;;;;1.55;0.52;;;9.00;99.90;;;;;;5009678;28;20120;-77
2021/01/29 00:45:18;;;;;;;3.58;0.70;;;8.90;99.90;;;;;;5008800;28;20034;-78
2021/01/29 00:47:44;;;;;;;1.58;0.55;;;8.90;99.90;;;;;;5009919;28;20044;-77
2021/01/29 00:50:10;;;;;;;2.50;0.47;;;8.80;99.90;;;;;;5014102;28;20029;-78
2021/01/29 00:52:36;;;;;;;1.20;0.52;;;8.80;99.90;;;;;;4995535;28;20032;-78
2021/01/29 00:55:02;;;;;;;2.20;0.70;;;8.90;99.90;;;;;;5014081;28;20038;-78
2021/01/29 00:57:28;;;;;;;0.98;0.57;;;8.90;99.90;;;;;;5012728;28;20289;-78
2021/01/29 00:59:53;;;;;;;1.38;0.63;;;8.90;99.90;;;;;;5014847;28;20041;-78
2021/01/29 01:02:19;;;;;;;0.95;0.40;;;8.90;99.90;;;;;;5002157;28;20049;-78
2021/01/29 01:04:44;;;;;;;0.60;0.40;;;9.00;99.90;;;;;;5013180;28;20044;-78
2021/01/29 01:07:12;;;;;;;4.28;0.60;;;9.10;99.90;;;;;;5014444;28;20430;-78
2021/01/29 01:09:38;;;;;;;0.93;0.60;;;9.20;99.90;;;;;;4999723;28;20646;-78
2021/01/29 01:12:04;;;;;;;0.93;0.50;;;9.20;99.90;;;;;;5011541;28;20044;-78
2021/01/29 01:14:29;;;;;;;0.68;0.57;;;9.20;99.90;;;;;;5013135;28;20048;-77
2021/01/29 01:16:55;;;;;;;1.08;0.50;;;9.30;99.90;;;;;;5015249;28;20038;-78
2021/01/29 01:19:20;;;;;;;1.15;0.60;;;9.30;99.90;;;;;;5013289;28;20029;-78
2021/01/29 01:21:46;;;;;;;1.77;0.60;;;9.30;99.90;;;;;;5010854;28;20585;-77
2021/01/29 01:24:11;;;;;;;1.20;0.70;;;9.30;99.90;;;;;;5013804;28;20034;-77
2021/01/29 01:26:37;;;;;;;1.58;0.65;;;9.30;99.90;;;;;;5011247;28;20030;-77
2021/01/29 01:29:04;;;;;;;1.20;0.65;;;9.40;99.90;;;;;;4996224;28;20045;-77
2021/01/29 01:31:29;;;;;;;2.22;0.50;;;9.40;99.90;;;;;;5010505;28;20080;-76
2021/01/29 01:33:55;;;;;;;2.78;0.70;;;9.40;99.90;;;;;;5010311;28;20155;-77
2021/01/29 01:36:20;;;;;;;1.23;0.77;;;9.40;99.90;;;;;;5003376;28;20034;-79
2021/01/29 01:38:46;;;;;;;1.67;0.40;;;9.40;99.90;;;;;;5009929;28;20518;-76
2021/01/29 01:41:12;;;;;;;1.98;0.63;;;9.30;99.90;;;;;;5011768;28;20038;-76
2021/01/29 01:43:38;;;;;;;1.83;0.93;;;9.30;99.90;;;;;;5009628;28;20061;-77
2021/01/29 01:46:11;;;;;;;1.52;0.88;;;9.20;99.90;;;;;;4994004;28;20469;-76
2021/01/29 01:48:44;;;;;;;1.45;0.45;;;9.20;99.90;;;;;;5010852;28;20111;-77
2021/01/29 01:51:33;;;;;;;2.22;0.80;;;9.30;99.90;;;;;;5009987;28;20450;-77
2021/01/29 01:54:05;;;;;;;5.00;0.63;;;9.30;99.90;;;;;;5011447;28;20047;-77
2021/01/29 01:56:40;;;;;;;2.45;0.70;;;9.30;99.90;;;;;;5009231;28;20046;-76
2021/01/29 01:59:12;;;;;;;2.28;1.00;;;9.20;99.90;;;;;;5009605;28;20049;-76
2021/01/29 02:01:38;;;;;;;2.20;0.85;;;9.20;99.90;;;;;;5012157;28;20108;-76
2021/01/29 02:04:05;;;;;;;2.55;0.50;;;9.20;99.90;;;;;;5011137;28;20037;-77
2021/01/29 02:06:39;;;;;;;3.60;0.65;;;9.30;99.90;;;;;;5009365;28;20036;-76
2021/01/29 02:09:08;;;;;;;2.42;0.65;;;9.20;99.90;;;;;;5012461;28;20038;-77
2021/01/29 02:11:33;;;;;;;2.53;1.00;;;9.30;99.90;;;;;;5009370;28;20037;-76
2021/01/29 02:13:59;;;;;;;1.90;0.80;;;9.30;99.90;;;;;;4990431;28;20081;-76
2021/01/29 02:16:42;;;;;;;3.72;0.50;;;9.30;99.90;;;;;;5013851;28;20049;-76
2021/01/29 02:19:26;;;;;;;0.88;0.63;;;9.30;99.90;;;;;;5010408;28;20049;-76
2021/01/29 02:22:36;;;;;;;3.00;0.80;;;9.30;99.90;;;;;;5007229;28;20034;-76
2021/01/29 02:25:28;;;;;;;3.08;1.02;;;9.30;99.90;;;;;;5010553;28;20045;-77
2021/01/29 02:27:56;;;;;;;2.17;1.30;;;9.30;99.90;;;;;;5009627;28;20044;-77
2021/01/29 02:30:31;;;;;;;1.38;0.60;;;9.30;99.90;;;;;;5010096;28;20042;-77
2021/01/29 02:33:37;;;;;;;1.15;0.50;;;9.20;99.90;;;;;;5007247;28;20076;-77
2021/01/29 02:36:48;;;;;;;0.85;0.55;;;9.20;99.90;;;;;;5007542;28;20042;-77
2021/01/29 02:39:30;;;;;;;2.97;0.60;;;9.20;99.90;;;;;;5006171;28;20092;-77
2021/01/29 02:42:07;;;;;;;2.17;0.80;;;9.20;99.90;;;;;;5005872;28;20041;-76
2021/01/29 02:44:45;;;;;;;2.45;0.93;;;9.20;99.90;;;;;;5009526;28;20029;-76
2021/01/29 02:47:22;;;;;;;8.40;1.10;;;9.30;99.90;;;;;;5010985;28;20536;-76
2021/01/29 02:50:07;;;;;;;3.33;0.98;;;9.20;99.90;;;;;;5011488;28;20057;-77
2021/01/29 02:52:56;;;;;;;2.25;0.47;;;9.30;99.90;;;;;;5006742;28;20034;-76
2021/01/29 02:55:38;;;;;;;2.22;0.70;;;9.30;99.90;;;;;;5007623;28;20098;-76
2021/01/29 02:58:22;;;;;;;1.20;0.57;;;9.30;99.90;;;;;;5004213;28;20036;-76
2021/01/29 03:01:13;;;;;;;1.80;0.70;;;9.30;99.90;;;;;;4985478;28;20544;-76
2021/01/29 03:03:51;;;;;;;0.82;0.50;;;9.30;99.90;;;;;;5007711;28;20092;-76
2021/01/29 03:06:53;;;;;;;1.17;0.60;;;9.30;99.90;;;;;;5008106;28;20109;-77
2021/01/29 03:09:27;;;;;;;0.95;0.40;;;9.30;99.90;;;;;;5006034;28;20049;-76
2021/01/29 03:12:07;;;;;;;1.70;0.40;;;9.30;99.90;;;;;;5005403;28;20437;-76
2021/01/29 03:14:44;;;;;;;1.65;0.47;;;9.30;99.90;;;;;;5005195;28;20041;-77
2021/01/29 03:17:23;;;;;;;1.15;0.50;;;9.30;99.90;;;;;;5007540;28;20041;-76
2021/01/29 03:20:36;;;;;;;1.05;0.57;;;9.30;99.90;;;;;;5007092;28;20041;-77
2021/01/29 03:23:17;;;;;;;1.77;0.57;;;9.40;99.90;;;;;;4928570;29;20282;-77
2021/01/29 03:25:47;;;;;;;0.75;0.30;;;9.40;99.90;;;;;;5005278;28;20103;-77
2021/01/29 03:28:17;;;;;;;1.48;0.30;;;9.60;99.90;;;;;;5007327;28;20038;-77
2021/01/29 03:30:47;;;;;;;1.95;0.60;;;9.50;99.90;;;;;;4988612;28;20123;-77
2021/01/29 03:33:15;;;;;;;1.50;0.30;;;9.60;99.90;;;;;;5006160;28;20042;-77
2021/01/29 03:35:46;;;;;;;0.85;0.55;;;9.70;99.90;;;;;;5007467;28;20040;-76
2021/01/29 03:38:29;;;;;;;1.02;0.40;;;9.80;99.90;;;;;;5012536;28;20077;-77
2021/01/29 03:41:20;;;;;;;0.65;0.30;;;9.70;99.90;;;;;;4985771;28;20506;-77
2021/01/29 03:43:59;;;;;;;1.08;0.38;;;9.60;99.90;;;;;;5009970;28;20041;-76
2021/01/29 03:46:34;;;;;;;0.68;0.40;;;9.70;99.90;;;;;;5008371;28;20429;-77
2021/01/29 03:49:08;;;;;;;2.05;0.50;;;9.70;99.90;;;;;;4987647;28;20571;-76
2021/01/29 03:52:00;;;;;;;1.60;0.60;;;9.70;99.90;;;;;;5005301;28;20044;-76
2021/01/29 03:54:32;;;;;;;1.33;0.47;;;9.60;99.90;;;;;;5009161;28;20449;-77
2021/01/29 03:57:16;;;;;;;1.35;0.43;;;9.60;99.90;;;;;;5004381;28;20034;-76
2021/01/29 04:00:18;;;;;;;2.67;0.28;;;9.50;99.90;;;;;;5006115;28;20045;-77
2021/01/29 04:03:01;;;;;;;1.30;0.40;;;9.40;99.90;;;;;;4973624;28;20037;-77
2021/01/29 04:05:56;;;;;;;1.38;0.60;;;9.50;99.90;;;;;;5011083;28;20065;-78
2021/01/29 04:08:30;;;;;;;1.33;0.55;;;9.50;99.90;;;;;;5004116;28;20509;-77
2021/01/29 04:10:58;;;;;;;0.22;0.20;;;9.50;99.90;;;;;;5005413;28;20057;-78
2021/01/29 04:13:46;;;;;;;0.65;0.30;;;9.60;99.90;;;;;;5010976;28;20040;-78
2021/01/29 04:16:19;;;;;;;0.40;0.20;;;9.50;99.90;;;;;;5013296;28;20034;-77
2021/01/29 04:18:49;;;;;;;1.48;0.40;;;9.50;99.90;;;;;;5007997;28;20033;-77
2021/01/29 04:21:30;;;;;;;0.80;0.40;;;9.50;99.90;;;;;;4993092;28;20041;-77
2021/01/29 04:24:07;;;;;;;0.82;0.52;;;9.50;99.90;;;;;;5012318;28;20754;-77
2021/01/29 04:26:52;;;;;;;0.70;0.45;;;9.50;99.90;;;;;;5008595;28;20320;-76
2021/01/29 04:29:27;;;;;;;0.93;0.47;;;9.40;99.90;;;;;;5010876;28;20099;-77
2021/01/29 04:32:00;;;;;;;2.83;0.38;;;9.30;99.90;;;;;;5006571;28;20030;-77
2021/01/29 04:34:29;;;;;;;1.67;0.50;;;9.30;99.90;;;;;;5000811;28;20037;-77
2021/01/29 04:37:00;;;;;;;1.23;0.47;;;9.30;99.90;;;;;;5015222;28;20098;-77
2021/01/29 04:39:31;;;;;;;1.20;0.52;;;9.30;99.90;;;;;;5007704;28;20038;-77
2021/01/29 04:42:23;;;;;;;3.70;0.70;;;9.20;99.90;;;;;;5010728;28;20042;-77
2021/01/29 04:45:07;;;;;;;2.58;0.90;;;9.30;99.90;;;;;;5008600;28;20490;-77
2021/01/29 04:47:36;;;;;;;1.02;0.38;;;9.30;99.90;;;;;;5009874;28;20654;-76
2021/01/29 04:50:10;;;;;;;1.15;0.32;;;9.30;99.90;;;;;;5009503;28;20138;-77
2021/01/29 04:53:07;;;;;;;0.30;0.20;;;9.40;99.90;;;;;;4992107;28;20383;-77
2021/01/29 04:55:53;;;;;;;7.93;0.30;;;9.30;99.90;;;;;;5007274;28;20132;-77
2021/01/29 04:58:23;;;;;;;0.20;0.13;;;9.30;99.90;;;;;;5008059;28;20076;-77
2021/01/29 05:01:22;;;;;;;0.43;0.25;;;9.30;99.90;;;;;;5006726;28;20044;-77
2021/01/29 05:04:03;;;;;;;2.80;0.45;;;9.30;99.90;;;;;;5008232;28;20118;-78
2021/01/29 05:06:48;;;;;;;0.40;0.30;;;9.20;99.90;;;;;;5008969;28;20925;-78
2021/01/29 05:09:35;;;;;;;0.40;0.20;;;9.30;99.90;;;;;;4998643;28;20049;-77
2021/01/29 05:12:17;;;;;;;1.05;0.30;;;9.20;99.90;;;;;;5010276;28;20424;-78
2021/01/29 05:15:10;;;;;;;2.03;0.30;;;9.20;99.90;;;;;;5008088;28;20203;-76
2021/01/29 05:17:52;;;;;;;2.88;0.20;;;9.20;99.90;;;;;;5007011;28;20041;-76
2021/01/29 05:21:01;;;;;;;1.67;0.50;;;9.20;99.90;;;;;;4991507;28;20042;-77
2021/01/29 05:23:45;;;;;;;0.28;0.20;;;9.20;99.90;;;;;;4940399;28;20473;-77
2021/01/29 05:26:38;;;;;;;1.15;0.25;;;9.20;99.90;;;;;;4992522;28;20128;-76
2021/01/29 05:29:29;;;;;;;0.75;0.28;;;9.20;99.90;;;;;;5007127;28;20052;-78
2021/01/29 05:32:34;;;;;;;1.23;0.30;;;9.30;99.90;;;;;;4990124;28;20068;-78
2021/01/29 05:35:23;;;;;;;2.05;0.30;;;9.30;99.90;;;;;;4992162;28;20042;-78
2021/01/29 05:38:17;;;;;;;0.80;0.20;;;9.20;99.90;;;;;;5017041;28;20034;-79
2021/01/29 05:41:07;;;;;;;4.03;0.40;;;9.20;99.90;;;;;;5009284;28;20610;-78
2021/01/29 05:43:48;;;;;;;3.47;0.45;;;9.30;99.90;;;;;;5006380;28;20103;-78
2021/01/29 05:46:40;;;;;;;0.85;0.40;;;9.30;99.90;;;;;;5008324;28;20058;-78
2021/01/29 05:49:23;;;;;;;0.82;0.40;;;9.20;99.90;;;;;;5014901;28;20041;-77
2021/01/29 05:52:08;;;;;;;0.70;0.35;;;9.20;99.90;;;;;;5000718;28;20033;-77
2021/01/29 05:54:36;;;;;;;3.90;0.40;;;9.10;99.90;;;;;;5008692;28;20145;-77
2021/01/29 05:57:26;;;;;;;0.55;0.40;;;9.00;99.90;;;;;;4995402;28;20072;-77
2021/01/29 06:00:20;;;;;;;0.82;0.55;;;9.00;99.90;;;;;;5008427;28;20537;-77
2021/01/29 06:02:58;;;;;;;2.78;0.60;;;9.00;99.90;;;;;;5011030;28;20122;-76
2021/01/29 06:05:39;;;;;;;0.60;0.30;;;9.00;99.90;;;;;;5012831;28;21015;-77
2021/01/29 06:08:26;;;;;;;0.28;0.22;;;8.80;99.90;;;;;;5010305;28;20615;-77
2021/01/29 06:11:08;;;;;;;1.38;0.40;;;8.80;99.90;;;;;;4992650;28;20033;-77
2021/01/29 06:14:10;;;;;;;0.85;0.55;;;8.80;99.90;;;;;;5013203;28;20111;-77
2021/01/29 06:17:06;;;;;;;1.98;0.60;;;8.80;99.90;;;;;;5010557;28;20038;-77
2021/01/29 06:19:50;;;;;;;4.65;0.40;;;8.80;99.90;;;;;;5014466;28;20030;-77
2021/01/29 06:22:18;;;;;;;0.65;0.40;;;8.90;99.90;;;;;;5011833;28;20058;-76
2021/01/29 06:25:13;;;;;;;1.90;0.52;;;8.90;99.90;;;;;;4995168;28;20037;-77
2021/01/29 06:28:02;;;;;;;3.20;0.93;;;8.90;99.90;;;;;;5009878;28;20623;-77
2021/01/29 06:30:42;;;;;;;6.82;0.90;;;8.90;99.90;;;;;;5003825;28;20042;-78
2021/01/29 06:33:49;;;;;;;2.28;1.00;;;8.90;99.90;;;;;;5012100;28;20117;-77
2021/01/29 06:36:49;;;;;;;1.30;0.80;;;8.80;99.90;;;;;;4987717;28;20037;-78
2021/01/29 06:39:24;;;;;;;1.92;0.50;;;8.90;99.90;;;;;;5012028;28;20034;-77
2021/01/29 06:41:55;;;;;;;1.27;0.50;;;9.00;99.90;;;;;;5006595;28;20236;-78
2021/01/29 06:44:48;;;;;;;0.95;0.57;;;9.20;99.90;;;;;;4988896;28;20410;-76
2021/01/29 06:47:41;;;;;;;4.47;0.40;;;9.20;99.90;;;;;;4999217;28;20111;-77
2021/01/29 06:50:42;;;;;;;1.00;0.30;;;9.20;99.90;;;;;;5008512;28;20041;-78
2021/01/29 06:53:31;;;;;;;0.80;0.47;;;9.20;99.90;;;;;;5009977;28;20449;-77
2021/01/29 06:56:22;;;;;;;6.20;0.65;;;9.20;99.90;;;;;;5004031;28;20084;-81
2021/01/29 06:59:09;;;;;;;0.60;0.30;;;9.20;99.90;;;;;;4986345;28;20077;-77
2021/01/29 07:01:54;;;;;;;0.10;0.10;;;9.20;99.90;;;;;;5008062;28;20045;-75
2021/01/29 07:04:58;;;;;;;0.60;0.28;;;9.30;99.90;;;;;;4990405;28;20048;-76
2021/01/29 07:07:29;;;;;;;0.35;0.15;;;9.30;99.90;;;;;;4979993;28;20050;-75
2021/01/29 07:10:12;;;;;;;2.03;0.45;;;9.40;99.90;;;;;;5005975;28;20131;-76
2021/01/29 07:13:16;;;;;;;0.45;0.20;;;9.30;99.90;;;;;;5009823;28;20037;-77
2021/01/29 07:16:19;;;;;;;0.60;0.30;;;9.30;99.90;;;;;;5012951;28;20056;-76
2021/01/29 07:18:56;;;;;;;0.65;0.20;;;9.30;99.90;;;;;;5011371;28;20152;-77
2021/01/29 07:21:47;;;;;;;2.42;0.20;;;9.30;99.90;;;;;;4989424;28;20655;-76
2021/01/29 07:24:32;;;;;;;0.43;0.20;;;9.50;99.90;;;;;;5012033;28;20069;-76
2021/01/29 07:27:32;;;;;;;0.95;0.32;;;9.50;99.90;;;;;;5010154;28;20822;-76
2021/01/29 07:30:52;;;;;;;2.58;0.20;;;9.40;99.90;;;;;;4949499;28;20435;-77
2021/01/29 07:33:49;;;;;;;0.22;0.20;;;9.50;99.90;;;;;;4950814;28;20037;-77
2021/01/29 07:36:31;;;;;;;0.43;0.20;;;9.50;99.90;;;;;;4984641;28;20061;-78
2021/01/29 07:39:16;;;;;;;0.63;0.32;;;9.50;99.90;;;;;;5011020;28;20114;-78
2021/01/29 07:42:19;;;;;;;0.85;0.25;;;9.60;99.90;;;;;;5008671;28;20764;-78
2021/01/29 07:45:18;;;;;;;0.55;0.20;;;9.60;99.90;;;;;;4992248;28;20029;-77
2021/01/29 07:48:07;;;;;;;0.47;0.17;;;9.60;99.90;;;;;;5006913;28;20053;-77
2021/01/29 07:50:44;;;;;;;0.40;0.30;;;9.60;99.90;;;;;;5001660;28;20592;-77
2021/01/29 07:53:37;;;;;;;1.17;0.38;;;9.50;99.90;;;;;;5006370;28;20065;-78
2021/01/29 07:56:36;;;;;;;1.50;0.38;;;9.60;99.90;;;;;;5006517;28;20492;-77
2021/01/29 07:59:29;;;;;;;0.30;0.25;;;9.70;99.90;;;;;;4997887;28;20055;-76
2021/01/29 08:02:19;;;;;;;0.38;0.25;;;9.80;99.90;;;;;;5010288;28;21007;-77
2021/01/29 08:05:08;;;;;;;4.78;0.45;;;9.70;99.90;;;;;;5010233;28;20125;-76
2021/01/29 08:07:39;;;;;;;0.88;0.30;;;9.90;99.90;;;;;;5001373;28;20048;-76
2021/01/29 08:10:24;;;;;;;0.57;0.32;;;9.90;99.90;;;;;;5013418;28;20157;-75
2021/01/29 08:13:09;;;;;;;0.68;0.40;;;9.90;99.90;;;;;;5012132;28;20481;-76
2021/01/29 08:15:47;;;;;;;0.88;0.35;;;10.00;99.90;;;;;;5010551;28;20042;-77
2021/01/29 08:18:27;;;;;;;1.13;0.30;;;10.10;99.90;;;;;;5013983;28;20033;-76
2021/01/29 08:21:19;;;;;;;0.20;0.20;;;10.10;99.90;;;;;;5013723;28;20045;-76
2021/01/29 08:24:22;;;;;;;0.20;0.20;;;10.20;99.90;;;;;;4985335;28;20033;-74
2021/01/29 08:27:22;;;;;;;0.88;0.50;;;10.20;99.90;;;;;;4988087;28;20037;-76
2021/01/29 08:30:03;;;;;;;0.95;0.28;;;10.20;99.90;;;;;;5014715;28;20520;-77
2021/01/29 08:32:48;;;;;;;1.73;0.47;;;10.10;99.90;;;;;;5015384;28;20549;-76
2021/01/29 08:35:32;;;;;;;;;;;10.10;99.90;;;;;;5011473;28;20053;-75
2021/01/29 08:38:19;;;;;;;3.65;0.30;;;10.20;99.90;;;;;;5009915;28;20297;-74
2021/01/29 08:41:22;;;;;;;1.63;0.30;;;10.30;99.90;;;;;;5008945;28;20144;-76
2021/01/29 08:44:13;;;;;;;0.40;0.20;;;10.20;99.90;;;;;;5001633;28;20120;-75
2021/01/29 08:47:13;;;;;;;4.18;0.38;;;10.10;99.90;;;;;;5008589;28;20045;-76
2021/01/29 08:50:08;;;;;;;1.83;0.28;;;10.20;99.90;;;;;;5005285;28;20141;-77
2021/01/29 08:53:35;;;;;;;1.37;0.30;;;10.20;99.90;;;;;;5006769;28;20068;-75
2021/01/29 08:56:09;;;;;;;3.70;0.47;;;10.30;99.90;;;;;;5008717;28;20045;-76
2021/01/29 08:59:00;;;;;;;2.03;0.50;;;10.30;99.90;;;;;;4988185;28;20042;-75
2021/01/29 09:01:30;;;;;;;0.20;0.20;;;10.40;99.90;;;;;;5001257;28;20034;-75
2021/01/29 09:04:04;;;;;;;2.85;0.40;;;10.20;99.90;;;;;;5008849;28;20040;-75
2021/01/29 09:06:39;;;;;;;2.80;0.22;;;10.30;99.90;;;;;;5004104;28;20105;-76
2021/01/29 09:09:14;;;;;;;1.02;0.30;;;10.60;99.90;;;;;;5007881;28;20052;-76
2021/01/29 09:12:03;;;;;;;2.42;0.30;;;10.70;99.90;;;;;;5012639;28;20052;-76
2021/01/29 09:14:42;;;;;;;2.05;0.40;;;10.70;99.90;;;;;;5014096;28;20061;-76
2021/01/29 09:17:13;;;;;;;5.88;0.43;;;10.60;99.90;;;;;;4996885;28;20059;-75
2021/01/29 09:19:44;;;;;;;1.13;0.30;;;10.60;99.90;;;;;;5007010;28;20131;-75
2021/01/29 09:22:29;;;;;;;1.45;0.38;;;10.50;99.90;;;;;;5001093;28;20142;-74
2021/01/29 09:25:17;;;;;;;1.42;0.30;;;10.50;99.90;;;;;;5006436;28;20661;-75
2021/01/29 09:27:58;;;;;;;2.70;0.40;;;10.70;99.40;;;;;;5007759;28;20600;-75
2021/01/29 09:30:47;;;;;;;2.63;0.57;;;10.70;99.50;;;;;;4995077;28;20065;-76
2021/01/29 09:33:19;;;;;;;2.10;0.47;;;10.90;96.60;;;;;;5007023;28;20048;-76
2021/01/29 09:35:58;;;;;;;1.65;0.43;;;11.00;96.00;;;;;;5007717;28;20103;-75
2021/01/29 09:38:35;;;;;;;1.15;0.30;;;11.20;95.30;;;;;;5006613;28;20038;-75
2021/01/29 09:41:14;;;;;;;3.90;0.93;;;11.20;92.60;;;;;;5008228;28;20544;-76
2021/01/29 09:43:49;;;;;;;2.35;0.45;;;11.20;93.40;;;;;;5010480;28;20079;-76
2021/01/29 09:46:31;;;;;;;3.60;0.77;;;11.10;92.10;;;;;;5010515;28;20500;-76
2021/01/29 09:49:05;;;;;;;3.75;0.50;;;11.10;92.50;;;;;;5000113;28;20038;-76
2021/01/29 09:51:57;;;;;;;9.88;0.80;;;11.10;90.50;;;;;;5009480;28;20522;-75
2021/01/29 09:54:43;;;;;;;8.00;1.60;;;11.10;90.90;;;;;;5010849;28;20050;-77
2021/01/29 09:57:32;;;;;;;3.63;0.90;;;11.10;91.10;;;;;;4995212;28;20060;-77
2021/01/29 10:00:21;;;;;;;4.85;1.23;;;11.20;90.80;;;;;;5012146;28;20045;-77
2021/01/29 10:03:09;;;;;;;5.53;0.90;;;11.30;89.90;;;;;;5009906;28;20087;-77
2021/01/29 10:05:47;;;;;;;2.58;0.80;;;11.20;86.00;;;;;;4994108;28;20577;-78
2021/01/29 10:08:31;;;;;;;7.63;0.77;;;11.10;85.60;;;;;;4993116;28;20088;-78
2021/01/29 10:11:24;;;;;;;6.03;1.00;;;11.10;86.70;;;;;;4993495;28;20033;-76
2021/01/29 10:14:18;;;;;;;9.18;1.25;;;11.10;83.30;;;;;;4986416;28;20527;-76
2021/01/29 10:16:44;;;;;;;5.60;1.40;;;11.00;81.70;;;;;;5011135;28;20711;-76
2021/01/29 10:19:41;;;;;;;7.18;1.40;;;10.90;82.90;;;;;;5009208;28;20112;-78
2021/01/29 10:22:32;;;;;;;7.68;1.10;;;10.90;83.10;;;;;;4993943;28;20049;-77
2021/01/29 10:25:05;;;;;;;5.57;1.20;;;10.90;81.70;;;;;;4998347;28;20057;-76
2021/01/29 10:27:54;;;;;;;7.45;0.77;;;10.70;82.10;;;;;;5011219;28;20494;-76
2021/01/29 10:30:33;;;;;;;6.15;1.33;;;10.70;82.10;;;;;;5010115;28;20061;-78
2021/01/29 10:33:23;;;;;;;5.88;0.70;;;10.80;81.40;;;;;;4981600;28;20033;-77
2021/01/29 10:35:55;;;;;;;7.00;1.13;;;10.90;79.10;;;;;;5003421;28;20125;-79
2021/01/29 10:38:35;;;;;;;8.90;1.20;;;10.90;80.20;;;;;;4987042;28;20038;-80
2021/01/29 10:41:39;;;;;;;3.92;0.65;;;10.90;77.80;;;;;;4984860;28;20525;-79
2021/01/29 10:44:09;;;;;;;7.25;0.93;;;10.90;78.30;;;;;;5007866;28;20556;-79
2021/01/29 10:47:10;;;;;;;6.20;1.00;;;11.10;78.20;;;;;;5011044;28;20041;-76
2021/01/29 10:50:09;;;;;;;9.60;1.02;;;11.20;77.10;;;;;;5011401;28;20041;-77
2021/01/29 10:52:42;;;;;;;6.88;1.30;;;11.20;76.70;;;;;;4987500;28;20037;-76
2021/01/29 10:55:19;;;;;;;1.95;0.75;;;11.20;76.60;;;;;;5007984;28;20577;-79
2021/01/29 10:58:16;;;;;;;10.02;1.20;;;11.40;76.10;;;;;;4983221;28;20061;-80
2021/01/29 11:00:42;;;;;;;3.13;0.80;;;11.50;74.00;;;;;;5008004;28;20064;-79
2021/01/29 11:03:14;;;;;;;6.25;1.20;;;11.60;73.60;;;;;;5000317;28;20093;-79
2021/01/29 11:05:43;;;;;;;5.95;1.33;;;11.50;73.60;;;;;;5004802;28;20054;-80
2021/01/29 11:08:30;;;;;;;6.72;1.70;;;11.60;74.40;;;;;;5005878;28;20048;-79
2021/01/29 11:11:07;;;;;;;8.85;1.48;;;11.60;75.30;;;;;;5005096;28;20072;-78
2021/01/29 11:13:44;;;;;;;7.35;1.70;;;11.50;74.60;;;;;;5003985;28;20030;-80
2021/01/29 11:16:13;;;;;;;6.30;1.60;;;11.40;74.70;;;;;;5007133;28;20033;-78
2021/01/29 11:18:39;;;;;;;6.25;1.35;;;11.40;75.40;;;;;;5003156;28;20052;-79
2021/01/29 11:21:23;;;;;;;2.60;1.20;;;11.50;76.50;;;;;;5000673;28;20045;-77
2021/01/29 11:24:07;;;;;;;5.85;1.30;;;11.40;75.50;;;;;;5002459;28;20529;-78
2021/01/29 11:26:40;;;;;;;11.40;1.30;;;11.30;75.90;;;;;;4982956;28;20034;-78
2021/01/29 11:29:19;;;;;;;8.98;1.50;;;11.30;75.80;;;;;;4999665;28;20045;-80
2021/01/29 11:32:22;;;;;;;9.98;1.65;;;11.20;77.10;;;;;;4991005;28;20045;-79
2021/01/29 11:34:55;;;;;;;10.25;1.42;;;11.10;76.80;;;;;;5003552;28;20033;-79
2021/01/29 11:37:58;;;;;;;5.40;0.82;;;11.10;78.20;;;;;;5006716;28;20140;-76
2021/01/29 11:41:02;;;;;;;4.45;1.08;;;11.20;77.30;;;;;;4998602;28;20049;-78
2021/01/29 11:43:51;;;;;;;6.85;1.13;;;11.20;76.20;;;;;;5001417;28;20490;-76
2021/01/29 11:46:26;;;;;;;7.05;0.82;;;11.20;75.60;;;;;;4999837;28;20038;-79
2021/01/29 11:49:03;;;;;;;6.43;1.27;;;11.30;75.90;;;;;;5000536;28;20045;-80
2021/01/29 11:51:36;;;;;;;9.65;1.23;;;11.30;76.70;;;;;;4986377;28;20034;-80
2021/01/29 11:54:25;;;;;;;10.68;1.15;;;11.30;75.90;;;;;;5000529;28;20558;-81
2021/01/29 11:57:28;;;;;;;11.13;1.42;;;11.30;76.20;;;;;;5000886;28;20387;-79
2021/01/29 12:00:13;;;;;;;3.70;0.93;;;11.40;76.10;;;;;;4995967;28;20034;-79
2021/01/29 12:02:59;;;;;;;4.82;0.90;;;11.50;75.80;;;;;;5002856;28;20042;-79
2021/01/29 12:05:56;;;;;;;9.82;1.20;;;11.70;75.50;;;;;;5000504;28;20096;-78
2021/01/29 12:08:32;;;;;;;2.63;0.70;;;11.90;74.50;;;;;;4999739;28;20038;-77
2021/01/29 12:11:21;;;;;;;6.97;1.40;;;11.70;72.10;;;;;;5003357;28;20066;-77
2021/01/29 12:14:00;;;;;;;6.22;1.08;;;11.70;73.50;;;;;;5001693;28;20592;-78
2021/01/29 12:16:30;;;;;;;7.78;1.52;;;11.60;74.00;;;;;;5009644;28;20037;-77
2021/01/29 12:18:57;;;;;;;6.07;1.23;;;11.60;73.90;;;;;;5008607;28;20046;-77
2021/01/29 12:21:47;;;;;;;8.05;1.42;;;11.50;72.70;;;;;;4999615;28;20050;-76
2021/01/29 12:24:40;;;;;;;3.65;1.40;;;11.60;72.40;;;;;;5010294;28;20030;-77
2021/01/29 12:27:18;;;;;;;3.28;0.77;;;11.50;70.30;;;;;;5008684;28;20038;-77
2021/01/29 12:30:18;;;;;;;3.85;1.10;;;11.60;70.30;;;;;;5007937;28;20048;-76
2021/01/29 12:33:24;;;;;;;9.50;1.30;;;11.60;71.30;;;;;;4999439;28;20069;-77
2021/01/29 12:35:59;;;;;;;5.05;1.20;;;11.60;70.50;;;;;;5004061;28;20044;-77
2021/01/29 12:38:41;;;;;;;9.10;0.90;;;11.50;70.00;;;;;;5003171;28;20108;-78
2021/01/29 12:41:07;;;;;;;6.20;1.17;;;11.60;71.00;;;;;;4998083;28;20497;-80
2021/01/29 12:43:32;;;;;;;8.63;1.13;;;11.60;72.50;;;;;;5004002;28;20034;-80
2021/01/29 12:46:14;;;;;;;13.50;1.55;;;11.50;72.10;;;;;;5009915;28;20180;-77
2021/01/29 12:48:44;;;;;;;4.13;1.10;;;11.60;72.60;;;;;;5005917;28;20038;-76
2021/01/29 12:51:39;;;;;;;6.55;1.05;;;11.50;72.40;;;;;;5005216;28;20092;-77
2021/01/29 12:54:40;;;;;;;6.70;1.73;;;11.40;73.70;;;;;;5004625;28;20038;-76
2021/01/29 12:57:15;;;;;;;11.60;1.23;;;11.30;73.90;;;;;;4975398;28;20038;-76
2021/01/29 12:59:54;;;;;;;5.88;1.23;;;11.30;74.70;;;;;;5002949;28;20685;-76
2021/01/29 13:02:35;;;;;;;8.35;1.15;;;11.20;74.60;;;;;;4995961;28;20030;-77
2021/01/29 13:05:40;;;;;;;6.25;0.98;;;11.20;74.70;;;;;;4999915;28;20041;-77
2021/01/29 13:08:25;;;;;;;5.75;1.20;;;11.20;74.80;;;;;;5000828;28;20045;-77
2021/01/29 13:10:59;;;;;;;7.90;0.93;;;11.30;75.60;;;;;;5001867;28;20042;-79
2021/01/29 13:13:44;;;;;;;3.10;1.00;;;11.30;74.10;;;;;;4999310;28;20073;-76
2021/01/29 13:16:20;;;;;;;5.38;0.43;;;11.20;74.60;;;;;;4998682;28;20079;-77
2021/01/29 13:18:49;;;;;;;4.55;0.93;;;11.20;75.40;;;;;;4998267;28;20030;-76
2021/01/29 13:21:42;;;;;;;3.13;0.70;;;11.30;75.60;;;;;;4997052;28;20503;-76
2021/01/29 13:24:27;;;;;;;3.55;0.57;;;11.30;76.20;;;;;;5002586;28;20042;-76
2021/01/29 13:26:54;;;;;;;4.80;0.55;;;11.30;76.50;;;;;;5005605;28;20073;-78
2021/01/29 13:29:28;;;;;;;3.67;1.10;;;11.30;76.90;;;;;;5002626;28;20049;-76
2021/01/29 13:31:59;;;;;;;2.38;0.52;;;11.20;77.50;;;;;;5002341;28;20039;-76
2021/01/29 13:34:30;;;;;;;2.47;0.50;;;11.20;78.40;;;;;;5006276;28;20052;-77
2021/01/29 13:37:06;;;;;;;6.93;0.50;;;11.00;78.50;;;;;;5007411;28;20138;-78
2021/01/29 13:39:36;;;;;;;6.10;0.60;;;11.00;79.10;;;;;;5006397;28;20552;-78
2021/01/29 13:42:18;;;;;;;1.83;0.30;;;11.10;79.30;;;;;;5007612;28;20502;-77
2021/01/29 13:45:04;;;;;;;1.38;0.50;;;11.00;80.30;;;;;;5008058;28;20120;-76
2021/01/29 13:47:34;;;;;;;4.32;0.95;;;11.00;80.10;;;;;;5005901;28;20604;-78
2021/01/29 13:50:26;;;;;;;4.13;0.50;;;11.00;80.20;;;;;;5005363;28;20069;-78
2021/01/29 13:53:08;;;;;;;2.42;0.38;;;10.90;80.00;;;;;;5002579;28;20061;-77
2021/01/29 13:55:49;;;;;;;6.75;0.55;;;11.00;80.70;;;;;;5000726;28;20034;-78
2021/01/29 13:58:27;;;;;;;2.10;0.60;;;11.20;80.90;;;;;;5009154;28;20038;-76
2021/01/29 14:01:15;;;;;;;5.03;1.13;;;11.10;80.40;;;;;;5003030;28;20052;-78
2021/01/29 14:03:43;;;;;;;5.85;1.02;;;11.00;80.10;;;;;;4997932;28;21757;-77
2021/01/29 14:06:09;;;;;;;3.22;0.57;;;10.90;80.00;;;;;;5003600;28;20034;-78